West End, Pennsylvania
Current Conditions -  °F | °C
As of 8:56 PM on Saturday 20 Dec 2014 (Local Time) from KCXY Reporting Station
Clear Clear  
Wind Chill: 26°   Ceiling: Unl
Heat Index: 26°   Visibility: 9mi
Dew Point: 20°   Wind: 3mph
Humidity: 78%   Direction: 240°WSW
Pressure: 30.29"   Gusts: NA
Location:  40.273°N, 76.8892°W
Report Text: KCXY 210156Z AUTO 24003KT 9SM CLR M03/M07 A3029 RMK AO2 SLP261 T10331067
Loading
Personal Weather Stations






























Interactive Weather Map New forecast layout! Learn more

10-Day Weather Forecast

Advertisements
Track Severe Weather on mobile